Seattle, Washington
Traffic Map
Current Weather Conditions
Seattle, Washington
Clear
Clear
79°
Feels Like: 79°
Wind Chill: 79° Ceiling: Unl
Heat Index: 79° Visibility: 10mi
Dew Point: 53° Wind: 8mph
Humidity: 40% Direction: 310° (NW)
Pressure: 30.04in Gusts: 0mph
Raw Report DataKBFI 230053Z 31007KT 10SM CLR 26/12 A3004 RMK AO2 SLP170 T02610117
Traffic Incident Summary
Active as of:
Severity:
Category:
InformationThere was an issue retrieving the traffic information for this location. Please try a different location or try again shortly.
Advertisements
Track Severe Weather on mobile